createdAt,value
2024-05-09T00:00:36.193Z,17.20
2024-05-09T00:03:09.247Z,19.35
2024-05-09T00:05:37.570Z,19.27
2024-05-09T00:08:05.842Z,18.48
2024-05-09T00:10:37.222Z,17.60
2024-05-09T00:13:10.738Z,19.10
2024-05-09T00:15:38.019Z,17.52
2024-05-09T00:18:06.654Z,18.83
2024-05-09T00:20:38.910Z,17.52
2024-05-09T00:23:10.584Z,16.58
2024-05-09T00:25:38.029Z,17.42
2024-05-09T00:28:05.402Z,17.05
2024-05-09T00:30:35.420Z,18.13
2024-05-09T00:33:08.871Z,17.35
2024-05-09T00:35:37.150Z,19.70
2024-05-09T00:38:04.597Z,20.33
2024-05-09T00:40:41.757Z,26.33
2024-05-09T00:43:14.581Z,15.70
2024-05-09T00:45:42.285Z,17.95
2024-05-09T00:48:11.263Z,17.98
2024-05-09T00:50:41.438Z,16.73
2024-05-09T00:53:13.290Z,17.50
2024-05-09T00:55:40.325Z,17.73
2024-05-09T00:58:08.101Z,16.92
2024-05-09T01:00:39.728Z,18.23
2024-05-09T01:03:13.431Z,18.67
2024-05-09T01:05:43.107Z,17.00
2024-05-09T01:08:11.036Z,19.08
2024-05-09T01:10:38.304Z,19.80
2024-05-09T01:13:05.960Z,16.77
2024-05-09T01:15:34.177Z,17.35
2024-05-09T01:18:12.905Z,17.80
2024-05-09T01:20:44.875Z,21.08
2024-05-09T01:23:14.932Z,19.63
2024-05-09T01:25:43.705Z,18.98
2024-05-09T01:28:10.543Z,17.98
2024-05-09T01:30:38.236Z,18.52
2024-05-09T01:33:07.640Z,19.60
2024-05-09T01:35:36.572Z,18.13
2024-05-09T01:38:03.652Z,18.27
2024-05-09T01:40:37.249Z,17.00
2024-05-09T01:43:10.566Z,19.42
2024-05-09T01:45:38.845Z,17.15
2024-05-09T01:48:06.363Z,16.80
2024-05-09T01:50:38.581Z,18.75
2024-05-09T01:53:10.280Z,19.50
2024-05-09T01:55:37.518Z,16.77
2024-05-09T01:58:04.574Z,17.85
2024-05-09T02:00:38.708Z,17.75
2024-05-09T02:03:11.775Z,18.48
2024-05-09T02:05:43.400Z,15.55
2024-05-09T02:08:15.236Z,17.48
2024-05-09T02:10:44.116Z,17.40
2024-05-09T02:13:11.135Z,16.05
2024-05-09T02:15:38.053Z,15.05
2024-05-09T02:18:05.503Z,16.15
2024-05-09T02:20:36.284Z,16.77
2024-05-09T02:23:06.207Z,17.23
2024-05-09T02:25:33.491Z,16.70
2024-05-09T02:28:00.268Z,20.10
2024-05-09T02:30:37.711Z,17.98
2024-05-09T02:33:08.377Z,19.13
2024-05-09T02:35:36.059Z,17.02
2024-05-09T02:38:03.023Z,18.80
2024-05-09T02:40:36.611Z,17.70
2024-05-09T02:43:06.644Z,17.83
2024-05-09T02:45:34.193Z,16.48
2024-05-09T02:48:01.932Z,15.00
2024-05-09T02:50:34.760Z,17.80
2024-05-09T02:53:09.872Z,15.15
2024-05-09T02:55:38.010Z,18.55
2024-05-09T02:58:06.502Z,15.05
2024-05-09T03:00:39.057Z,16.67
2024-05-09T03:03:10.795Z,17.60
2024-05-09T03:05:41.495Z,15.18
2024-05-09T03:08:09.716Z,15.30
2024-05-09T03:10:38.649Z,18.42
2024-05-09T03:13:07.719Z,14.27
2024-05-09T03:15:34.644Z,14.15
2024-05-09T03:18:01.730Z,15.13
2024-05-09T03:20:33.997Z,15.07
2024-05-09T03:23:02.957Z,16.88
2024-05-09T03:25:30.088Z,17.75
2024-05-09T03:27:56.931Z,15.52
2024-05-09T03:30:38.377Z,16.08
2024-05-09T03:33:14.039Z,19.58
2024-05-09T03:35:43.328Z,15.20
2024-05-09T03:38:10.715Z,15.98
2024-05-09T03:40:52.839Z,16.40
2024-05-09T03:43:20.512Z,16.67
2024-05-09T03:45:49.357Z,15.40
2024-05-09T03:48:16.833Z,15.55
2024-05-09T03:50:44.447Z,16.88
2024-05-09T03:53:13.138Z,13.63
2024-05-09T03:55:40.081Z,13.65
2024-05-09T03:58:08.057Z,14.93
2024-05-09T04:00:38.678Z,14.05
2024-05-09T04:05:58.644Z,14.68
2024-05-09T04:08:25.460Z,15.73
2024-05-09T04:10:52.290Z,14.65
2024-05-09T04:13:18.999Z,15.70
2024-05-09T04:15:45.887Z,16.30
2024-05-09T04:18:12.843Z,17.13
2024-05-09T04:20:41.498Z,16.73
2024-05-09T04:23:13.632Z,17.67
2024-05-09T04:25:45.617Z,14.18
2024-05-09T04:28:13.273Z,18.60
2024-05-09T04:30:41.514Z,16.00
2024-05-09T04:33:12.076Z,14.65
2024-05-09T04:35:45.667Z,14.25
2024-05-09T04:38:14.416Z,14.43
2024-05-09T04:40:41.783Z,14.52
2024-05-09T04:43:15.397Z,14.20
2024-05-09T04:45:42.909Z,13.87
2024-05-09T04:48:09.940Z,15.05
2024-05-09T04:50:39.049Z,16.50
2024-05-09T04:53:10.868Z,15.15
2024-05-09T04:55:39.426Z,15.80
2024-05-09T04:58:09.886Z,14.07
2024-05-09T05:00:38.825Z,13.82
2024-05-09T05:03:10.583Z,16.02
2024-05-09T05:05:44.076Z,13.57
2024-05-09T05:08:13.362Z,15.00
2024-05-09T05:10:41.244Z,13.02
2024-05-09T05:13:20.068Z,14.18
2024-05-09T05:15:58.348Z,13.48
2024-05-09T05:18:29.027Z,16.35
2024-05-09T05:20:56.580Z,17.52
2024-05-09T05:23:24.690Z,13.88
2024-05-09T05:25:54.272Z,13.68
2024-05-09T05:28:22.191Z,14.32
2024-05-09T05:30:49.471Z,17.20
2024-05-09T05:33:19.031Z,15.65
2024-05-09T05:35:47.244Z,12.07
2024-05-09T05:38:14.433Z,13.13
2024-05-09T05:40:41.517Z,14.00
2024-05-09T05:43:10.468Z,13.27
2024-05-09T05:45:38.030Z,11.82
2024-05-09T05:48:06.598Z,11.75
2024-05-09T05:50:36.910Z,13.05
2024-05-09T05:53:08.067Z,11.00
2024-05-09T05:55:36.192Z,11.18
2024-05-09T05:58:03.396Z,13.45
2024-05-09T06:00:37.840Z,12.98
2024-05-09T06:03:08.447Z,13.95
2024-05-09T06:05:36.990Z,12.93
2024-05-09T06:08:04.225Z,11.65
2024-05-09T06:10:37.943Z,11.05
2024-05-09T06:13:07.389Z,11.95
2024-05-09T06:15:34.367Z,11.90
2024-05-09T06:18:01.705Z,11.27
2024-05-09T06:20:35.672Z,11.35
2024-05-09T06:23:09.482Z,11.23
2024-05-09T06:25:36.938Z,10.20
2024-05-09T06:28:03.983Z,11.95
2024-05-09T06:30:38.676Z,10.35
2024-05-09T06:33:12.955Z,10.55
2024-05-09T06:35:42.610Z,10.45
2024-05-09T06:38:10.048Z,11.35
2024-05-09T06:40:41.263Z,13.18
2024-05-09T06:43:18.347Z,13.40
2024-05-09T06:45:48.061Z,12.00
2024-05-09T06:48:18.324Z,10.65
2024-05-09T06:50:46.465Z,11.13
2024-05-09T06:53:17.317Z,10.55
2024-05-09T06:55:44.265Z,10.70
2024-05-09T06:58:11.028Z,11.85
2024-05-09T07:00:40.358Z,10.85
2024-05-09T07:03:15.667Z,11.35
2024-05-09T07:05:46.234Z,12.65
2024-05-09T07:08:14.656Z,11.20
2024-05-09T07:10:41.601Z,10.73
2024-05-09T07:13:12.655Z,10.73
2024-05-09T07:15:40.218Z,9.88
2024-05-09T07:18:18.572Z,12.95
2024-05-09T07:20:48.188Z,11.68
2024-05-09T07:23:16.761Z,10.90
2024-05-09T07:25:43.822Z,10.48
2024-05-09T07:28:13.136Z,12.10
2024-05-09T07:30:39.945Z,11.70
2024-05-09T07:33:06.909Z,10.68
2024-05-09T07:35:34.223Z,11.57
2024-05-09T07:38:01.305Z,14.02
2024-05-09T07:40:34.885Z,15.40
2024-05-09T07:43:08.094Z,10.43
2024-05-09T07:52:32.566Z,10.02
2024-05-09T07:55:55.444Z,11.82
2024-05-09T07:58:27.075Z,9.27
2024-05-09T08:00:54.871Z,12.13
2024-05-09T08:03:23.149Z,10.52
2024-05-09T08:05:53.459Z,10.70
2024-05-09T08:08:20.450Z,13.77
2024-05-09T08:10:47.383Z,10.38
2024-05-09T08:13:14.323Z,9.07
2024-05-09T08:15:41.469Z,9.23
2024-05-09T08:18:09.863Z,10.48
2024-05-09T08:20:38.434Z,8.52
2024-05-09T08:23:05.607Z,9.82
2024-05-09T08:25:32.515Z,10.45
2024-05-09T08:27:59.283Z,9.70
2024-05-09T08:30:32.864Z,8.63
2024-05-09T08:33:04.342Z,8.40
2024-05-09T08:35:31.752Z,8.75
2024-05-09T08:37:59.055Z,10.15
2024-05-09T08:40:33.396Z,9.07
2024-05-09T08:43:03.233Z,9.10
2024-05-09T08:45:30.873Z,8.00
2024-05-09T08:48:00.058Z,9.25
2024-05-09T08:50:35.482Z,11.05
2024-05-09T08:53:05.611Z,8.93
2024-05-09T08:55:32.621Z,9.15
2024-05-09T08:58:01.139Z,7.70
2024-05-09T09:00:35.833Z,8.10
2024-05-09T09:03:06.992Z,7.47
2024-05-09T09:05:38.186Z,8.85
2024-05-09T09:08:08.018Z,8.50
2024-05-09T09:10:35.588Z,6.47
2024-05-09T09:13:04.717Z,6.65
2024-05-09T09:15:32.053Z,8.82
2024-05-09T09:18:00.229Z,10.05
2024-05-09T09:20:34.228Z,8.13
2024-05-09T09:23:04.024Z,8.38
2024-05-09T09:25:30.924Z,9.65
2024-05-09T09:27:58.545Z,7.43
2024-05-09T09:30:35.028Z,7.97
2024-05-09T09:33:13.582Z,7.45
2024-05-09T09:35:42.711Z,8.80
2024-05-09T09:38:10.710Z,7.93
2024-05-09T09:40:46.652Z,7.05
2024-05-09T09:43:23.076Z,7.60
2024-05-09T09:45:51.035Z,6.82
2024-05-09T09:48:19.822Z,8.48
2024-05-09T09:50:48.331Z,6.55
2024-05-09T09:53:16.056Z,6.55
2024-05-09T09:55:43.827Z,6.35
2024-05-09T09:58:13.525Z,5.50
2024-05-09T10:00:41.379Z,4.82
2024-05-09T10:03:08.700Z,7.18
2024-05-09T10:05:35.993Z,6.25
2024-05-09T10:08:12.497Z,10.00
2024-05-09T10:10:40.137Z,6.65
2024-05-09T10:13:07.880Z,5.63
2024-05-09T10:15:51.429Z,4.63
2024-05-09T10:18:27.290Z,5.63
2024-05-09T10:20:56.446Z,6.28
2024-05-09T10:23:24.388Z,5.78
2024-05-09T10:26:04.803Z,8.40
2024-05-09T10:28:33.181Z,5.18
2024-05-09T10:31:07.530Z,6.32
2024-05-09T10:33:51.369Z,5.22
2024-05-09T10:36:24.403Z,6.40
2024-05-09T10:38:52.794Z,8.05
2024-05-09T10:41:20.598Z,8.70
2024-05-09T10:43:47.877Z,7.30
2024-05-09T10:46:15.090Z,4.88
2024-05-09T10:48:44.540Z,6.90
2024-05-09T10:51:12.036Z,6.18
2024-05-09T10:53:43.287Z,5.97
2024-05-09T10:56:10.562Z,8.55
2024-05-09T10:58:37.500Z,8.43
2024-05-09T11:01:07.005Z,6.28
2024-05-09T11:03:35.331Z,5.05
2024-05-09T11:06:02.920Z,4.82
2024-05-09T11:08:32.797Z,6.30
2024-05-09T11:11:02.997Z,4.32
2024-05-09T11:13:31.292Z,6.85
2024-05-09T11:15:59.248Z,5.10
2024-05-09T11:18:30.694Z,6.97
2024-05-09T11:21:00.600Z,3.90
2024-05-09T11:23:30.100Z,5.60
2024-05-09T11:26:00.094Z,5.32
2024-05-09T11:28:30.983Z,6.63
2024-05-09T11:31:06.874Z,6.13
2024-05-09T11:33:40.216Z,4.10
2024-05-09T11:36:08.935Z,4.22
2024-05-09T11:38:35.988Z,4.47
2024-05-09T11:41:03.601Z,4.75
2024-05-09T11:43:30.379Z,4.10
2024-05-09T11:45:58.188Z,6.72
2024-05-09T11:48:26.195Z,4.22
2024-05-09T11:50:54.373Z,4.32
2024-05-09T11:53:21.140Z,5.28
2024-05-09T11:55:47.897Z,5.93
2024-05-09T11:58:17.148Z,4.07
2024-05-09T12:00:44.565Z,4.50
2024-05-09T12:03:11.746Z,5.05
2024-05-09T12:08:06.348Z,6.38
2024-05-09T12:10:35.631Z,4.90
2024-05-09T12:13:05.559Z,5.55
2024-05-09T12:15:36.248Z,3.75
2024-05-09T12:18:05.363Z,5.00
2024-05-09T12:20:37.380Z,5.22
2024-05-09T12:23:07.783Z,5.25
2024-05-09T12:25:36.391Z,4.38
2024-05-09T12:28:03.525Z,4.82
2024-05-09T12:30:36.637Z,4.72
2024-05-09T12:33:15.377Z,4.43
2024-05-09T12:35:45.715Z,5.43
2024-05-09T12:38:15.307Z,4.40
2024-05-09T12:40:42.597Z,4.35
2024-05-09T12:43:10.629Z,5.30
2024-05-09T12:45:38.738Z,4.63
2024-05-09T12:48:08.385Z,7.78
2024-05-09T12:50:36.416Z,5.22
2024-05-09T12:53:04.550Z,5.15
2024-05-09T12:55:43.870Z,5.05
2024-05-09T12:58:19.561Z,8.48
2024-05-09T13:00:47.129Z,4.38
2024-05-09T13:03:14.771Z,5.95
2024-05-09T13:05:45.816Z,5.20
2024-05-09T13:08:13.730Z,5.93
2024-05-09T13:10:41.275Z,7.63
2024-05-09T13:13:12.096Z,6.72
2024-05-09T13:15:39.493Z,5.50
2024-05-09T13:18:06.872Z,5.45
2024-05-09T13:20:35.696Z,7.53
2024-05-09T13:23:04.271Z,5.05
2024-05-09T13:25:31.604Z,5.15
2024-05-09T13:27:58.523Z,5.60
2024-05-09T13:30:30.242Z,8.00
2024-05-09T13:33:06.590Z,4.10
2024-05-09T13:35:35.212Z,4.88
2024-05-09T13:38:03.216Z,5.60
2024-05-09T13:40:34.348Z,6.47
2024-05-09T13:43:05.913Z,4.28
2024-05-09T13:45:33.526Z,4.00
2024-05-09T13:48:02.000Z,5.53
2024-05-09T13:50:34.468Z,4.05
2024-05-09T13:53:05.782Z,4.30
2024-05-09T13:55:33.630Z,6.28
2024-05-09T13:58:01.846Z,8.25
2024-05-09T14:00:41.780Z,7.18
2024-05-09T14:03:17.621Z,6.47
2024-05-09T14:05:48.015Z,6.22
2024-05-09T14:08:15.913Z,5.72
2024-05-09T14:10:45.094Z,4.80
2024-05-09T14:13:13.003Z,4.43
2024-05-09T14:15:40.507Z,4.75
2024-05-09T14:18:13.397Z,4.97
2024-05-09T14:20:42.932Z,4.13
2024-05-09T14:23:10.255Z,4.60
2024-05-09T14:25:41.860Z,11.43
2024-05-09T14:28:10.584Z,6.85
2024-05-09T14:30:38.736Z,4.05
2024-05-09T14:33:07.452Z,4.68
2024-05-09T14:35:35.265Z,6.30
2024-05-09T14:38:02.400Z,4.25
2024-05-09T14:40:39.363Z,5.40
2024-05-09T14:43:14.643Z,4.32
2024-05-09T14:45:42.242Z,4.20
2024-05-09T14:48:09.849Z,4.13
2024-05-09T14:50:39.520Z,6.05
2024-05-09T14:53:11.648Z,5.97
2024-05-09T14:55:40.590Z,8.98
2024-05-09T14:58:09.855Z,5.38
2024-05-09T15:00:41.649Z,6.60
2024-05-09T15:03:11.859Z,5.18
2024-05-09T15:05:39.078Z,8.45
2024-05-09T15:08:07.903Z,4.90
2024-05-09T15:10:36.516Z,6.55
2024-05-09T15:13:04.875Z,7.45
2024-05-09T15:15:31.907Z,5.18
2024-05-09T15:17:59.273Z,5.13
2024-05-09T15:20:33.265Z,4.53
2024-05-09T15:23:03.192Z,5.15
2024-05-09T15:25:30.479Z,5.57
2024-05-09T15:27:57.481Z,7.60
2024-05-09T15:30:30.583Z,8.57
2024-05-09T15:33:00.360Z,5.30
2024-05-09T15:35:27.461Z,6.63
2024-05-09T15:37:54.596Z,5.80
2024-05-09T15:40:30.719Z,8.00
2024-05-09T15:43:05.637Z,5.15
2024-05-09T15:45:32.979Z,5.75
2024-05-09T15:48:00.117Z,5.38
2024-05-09T15:50:35.885Z,7.55
2024-05-09T15:53:07.683Z,5.03
2024-05-09T15:55:35.339Z,6.35
2024-05-09T15:58:03.261Z,4.60
2024-05-09T16:00:37.856Z,6.35
2024-05-09T16:03:13.626Z,4.78
2024-05-09T16:05:46.654Z,5.00
2024-05-09T16:08:15.240Z,7.13
2024-05-09T16:10:45.954Z,5.70
2024-05-09T16:13:14.041Z,22.45
2024-05-09T16:15:41.338Z,8.48
2024-05-09T16:18:08.554Z,6.68
2024-05-09T16:20:40.114Z,7.07
2024-05-09T16:23:10.275Z,8.75
2024-05-09T16:25:37.743Z,5.53
2024-05-09T16:28:10.305Z,7.07
2024-05-09T16:30:39.753Z,6.00
2024-05-09T16:33:07.611Z,5.70
2024-05-09T16:35:35.375Z,6.35
2024-05-09T16:38:02.961Z,8.05
2024-05-09T16:40:37.651Z,7.13
2024-05-09T16:43:08.324Z,38.25
2024-05-09T16:45:35.449Z,9.43
2024-05-09T16:48:02.869Z,8.00
2024-05-09T16:50:33.741Z,8.00
2024-05-09T16:53:02.822Z,4.93
2024-05-09T16:55:29.717Z,5.80
2024-05-09T16:57:57.362Z,4.63
2024-05-09T17:00:35.233Z,6.50
2024-05-09T17:03:10.032Z,4.47
2024-05-09T17:05:38.161Z,5.45
2024-05-09T17:08:06.010Z,6.78
2024-05-09T17:10:34.960Z,5.50
2024-05-09T17:13:04.675Z,5.75
2024-05-09T17:15:33.407Z,5.20
2024-05-09T17:18:01.241Z,5.28
2024-05-09T17:20:33.242Z,6.20
2024-05-09T17:23:04.820Z,7.43
2024-05-09T17:25:32.377Z,6.40
2024-05-09T17:28:07.507Z,7.28
2024-05-09T17:30:37.697Z,5.85
2024-05-09T17:33:07.904Z,4.90
2024-05-09T17:35:36.061Z,4.53
2024-05-09T17:38:03.059Z,5.00
2024-05-09T17:40:34.770Z,5.38
2024-05-09T17:43:05.276Z,4.78
2024-05-09T17:45:32.778Z,5.68
2024-05-09T17:48:00.152Z,6.07
2024-05-09T17:50:34.845Z,5.75
2024-05-09T17:53:04.523Z,7.63
2024-05-09T17:55:31.397Z,9.57
2024-05-09T17:57:58.398Z,7.10
2024-05-09T18:02:56.149Z,6.82
2024-05-09T18:05:23.462Z,8.55
2024-05-09T18:07:52.670Z,10.38
2024-05-09T18:10:25.795Z,9.68
2024-05-09T18:12:59.673Z,10.10
2024-05-09T18:15:26.412Z,9.55
2024-05-09T18:17:53.258Z,8.75
2024-05-09T18:20:31.873Z,6.88
2024-05-09T18:23:06.906Z,10.00
2024-05-09T18:25:33.610Z,6.85
2024-05-09T18:28:02.123Z,10.27
2024-05-09T18:30:34.417Z,8.77
2024-05-09T18:33:04.990Z,9.93
2024-05-09T18:35:33.256Z,9.90
2024-05-09T18:38:00.387Z,8.15
2024-05-09T18:40:33.661Z,9.27
2024-05-09T18:43:05.232Z,9.38
2024-05-09T18:45:33.281Z,8.75
2024-05-09T18:48:00.440Z,7.95
2024-05-09T18:50:34.787Z,6.10
2024-05-09T18:53:06.855Z,5.40
2024-05-09T18:55:34.658Z,6.45
2024-05-09T18:58:01.703Z,6.03
2024-05-09T19:00:35.056Z,7.03
2024-05-09T19:03:09.424Z,8.18
2024-05-09T19:05:39.415Z,7.95
2024-05-09T19:08:07.527Z,8.23
2024-05-09T19:10:35.863Z,6.90
2024-05-09T19:13:08.150Z,7.35
2024-05-09T19:15:38.905Z,7.35
2024-05-09T19:18:06.311Z,6.13
2024-05-09T19:20:35.330Z,8.82
2024-05-09T19:23:03.696Z,8.02
2024-05-09T19:25:30.922Z,7.10
2024-05-09T19:27:58.218Z,6.30
2024-05-09T19:30:34.492Z,8.20
2024-05-09T19:33:06.911Z,8.98
2024-05-09T19:35:33.749Z,9.35
2024-05-09T19:38:00.731Z,8.75
2024-05-09T19:40:32.128Z,7.93
2024-05-09T19:43:03.283Z,7.65
2024-05-09T19:45:31.283Z,6.97
2024-05-09T19:47:58.775Z,7.85
2024-05-09T19:50:35.562Z,7.32
2024-05-09T19:53:08.483Z,8.77
2024-05-09T19:55:35.305Z,6.90
2024-05-09T19:58:05.172Z,9.35
2024-05-09T20:00:39.838Z,6.55
2024-05-09T20:03:34.711Z,7.43
2024-05-09T20:06:02.526Z,6.85
2024-05-09T20:08:29.253Z,5.95
2024-05-09T20:10:56.225Z,10.80
2024-05-09T20:13:23.266Z,8.57
2024-05-09T20:15:50.169Z,7.00
2024-05-09T20:18:18.200Z,7.85
2024-05-09T20:20:46.111Z,8.98
2024-05-09T20:23:14.097Z,7.65
2024-05-09T20:25:41.785Z,7.63
2024-05-09T20:28:08.736Z,9.43
2024-05-09T20:30:36.248Z,10.02
2024-05-09T20:33:05.482Z,10.70
2024-05-09T20:35:33.897Z,7.68
2024-05-09T20:38:01.519Z,7.40
2024-05-09T20:40:33.334Z,8.18
2024-05-09T20:43:04.090Z,8.15
2024-05-09T20:45:31.113Z,7.03
2024-05-09T20:47:58.249Z,8.95
2024-05-09T20:50:35.586Z,7.93
2024-05-09T20:53:08.783Z,7.28
2024-05-09T20:55:35.555Z,9.63
2024-05-09T20:58:02.416Z,6.40
2024-05-09T21:00:35.555Z,6.97
2024-05-09T21:03:07.516Z,7.90
2024-05-09T21:05:35.341Z,8.02
2024-05-09T21:08:03.076Z,8.63
2024-05-09T21:10:33.006Z,7.78
2024-05-09T21:13:02.596Z,7.43
2024-05-09T21:15:30.077Z,7.75
2024-05-09T21:17:57.017Z,11.20
2024-05-09T21:20:30.882Z,8.82
2024-05-09T21:22:59.150Z,6.43
2024-05-09T21:25:25.996Z,7.15
2024-05-09T21:27:53.059Z,11.48
2024-05-09T21:30:31.430Z,7.63
2024-05-09T21:33:06.149Z,9.43
2024-05-09T21:35:33.015Z,6.22
2024-05-09T21:37:59.858Z,6.95
2024-05-09T21:40:33.701Z,7.40
2024-05-09T21:43:02.758Z,7.45
2024-05-09T21:45:29.691Z,6.82
2024-05-09T21:47:56.586Z,10.30
2024-05-09T21:50:31.506Z,8.55
2024-05-09T21:53:05.405Z,7.60
2024-05-09T21:55:32.183Z,8.63
2024-05-09T21:57:59.013Z,8.00
2024-05-09T22:00:32.998Z,7.70
2024-05-09T22:03:04.626Z,8.10
2024-05-09T22:05:31.998Z,6.80
2024-05-09T22:07:59.279Z,8.13
2024-05-09T22:10:31.136Z,9.25
2024-05-09T22:13:01.675Z,8.05
2024-05-09T22:15:28.694Z,4.68
2024-05-09T22:17:56.849Z,5.85
2024-05-09T22:20:33.517Z,6.75
2024-05-09T22:23:04.456Z,8.13
2024-05-09T22:25:32.246Z,9.65
2024-05-09T22:28:00.420Z,6.65
2024-05-09T22:30:34.619Z,6.10
2024-05-09T22:33:05.924Z,7.10
2024-05-09T22:35:33.119Z,7.63
2024-05-09T22:37:59.985Z,6.97
2024-05-09T22:40:38.270Z,7.43
2024-05-09T22:43:13.333Z,7.82
2024-05-09T22:45:40.331Z,10.35
2024-05-09T22:48:08.462Z,7.55
2024-05-09T22:50:35.491Z,9.82
2024-05-09T22:53:02.431Z,8.88
2024-05-09T22:55:29.181Z,7.30
2024-05-09T22:57:56.238Z,9.63
2024-05-09T23:00:31.080Z,8.52
2024-05-09T23:03:00.427Z,6.65
2024-05-09T23:05:28.315Z,7.93
2024-05-09T23:07:55.499Z,7.57
2024-05-09T23:10:30.817Z,8.23
2024-05-09T23:13:02.373Z,7.85
2024-05-09T23:15:29.243Z,9.48
2024-05-09T23:17:57.070Z,7.10
2024-05-09T23:20:33.427Z,9.23
2024-05-09T23:23:05.615Z,5.40
2024-05-09T23:25:32.576Z,6.20
2024-05-09T23:27:59.688Z,7.30
2024-05-09T23:30:36.861Z,11.43
2024-05-09T23:33:06.970Z,7.80
2024-05-09T23:35:33.854Z,9.73
2024-05-09T23:38:00.683Z,8.82
2024-05-09T23:40:37.420Z,6.18
2024-05-09T23:43:08.248Z,6.50
2024-05-09T23:45:35.352Z,4.35
2024-05-09T23:48:02.901Z,6.32
2024-05-09T23:50:35.427Z,7.97
2024-05-09T23:53:05.699Z,7.40
2024-05-09T23:55:33.035Z,7.88
2024-05-09T23:58:00.259Z,12.73
